Time;durP1;ratioP1;P1;durP2;ratioP2;P2;SDS_P1;SDS_P2;PMS_P1;PMS_P2;Temp;Humidity;BMP_temperature;BMP_pressure;BME280_temperature;BME280_humidity;BME280_pressure;Samples;Min_cycle;Max_cycle;Signal;HPM_P1;HPM_P2
2023/01/27 00:00:08;;;;;;;15.68;9.60;;;5.50;99.90;;;;;;5119723;27;20122;-71
2023/01/27 00:02:33;;;;;;;13.88;9.23;;;5.50;99.90;;;;;;5133994;27;20055;-70
2023/01/27 00:04:59;;;;;;;13.48;9.70;;;5.40;99.90;;;;;;5157189;27;20039;-70
2023/01/27 00:07:25;;;;;;;17.35;9.52;;;6.00;99.90;;;;;;5116189;27;20070;-70
2023/01/27 00:09:50;;;;;;;16.67;10.38;;;5.40;99.90;;;;;;5157235;27;20491;-71
2023/01/27 00:15:06;;;;;;;17.17;9.80;;;5.40;99.90;;;;;;5135367;27;20051;-70
2023/01/27 00:17:33;;;;;;;16.00;10.23;;;5.40;99.90;;;;;;5155579;27;20053;-70
2023/01/27 00:19:59;;;;;;;17.02;10.40;;;5.40;99.90;;;;;;5138153;27;20386;-70
2023/01/27 00:25:08;;;;;;;14.88;9.20;;;5.30;99.90;;;;;;5143316;27;20043;-71
2023/01/27 00:27:34;;;;;;;13.45;9.15;;;5.30;99.90;;;;;;5136558;27;20046;-71
2023/01/27 00:30:01;;;;;;;17.23;9.82;;;5.30;99.90;;;;;;5138160;27;20039;-70
2023/01/27 00:35:11;;;;;;;14.40;9.02;;;5.20;99.90;;;;;;5133347;27;20043;-70
2023/01/27 00:37:37;;;;;;;13.05;8.43;;;5.30;99.90;;;;;;5136495;27;20428;-71
2023/01/27 00:40:03;;;;;;;14.10;8.80;;;5.30;99.90;;;;;;5136514;27;20063;-71
2023/01/27 00:42:28;;;;;;;13.63;7.80;;;5.20;99.90;;;;;;5135171;27;20043;-71
2023/01/27 00:47:38;;;;;;;12.15;6.93;;;5.20;99.90;;;;;;5135858;27;20039;-70
2023/01/27 00:50:04;;;;;;;12.68;6.95;;;5.20;99.90;;;;;;5117622;27;20490;-70
2023/01/27 00:52:29;;;;;;;14.55;6.93;;;5.20;99.90;;;;;;5136028;27;20407;-70
2023/01/27 00:54:55;;;;;;;10.43;6.47;;;6.90;99.90;;;;;;5135903;27;20080;-70
2023/01/27 00:57:21;;;;;;;10.63;5.63;;;5.20;99.90;;;;;;5136188;27;20036;-70
2023/01/27 00:59:46;;;;;;;11.80;5.50;;;5.30;99.90;;;;;;5117400;27;20039;-71
2023/01/27 01:02:12;;;;;;;11.70;5.93;;;5.20;99.90;;;;;;5152941;27;20042;-70
2023/01/27 01:04:37;;;;;;;10.35;6.38;;;6.00;99.90;;;;;;5156379;27;20038;-70
2023/01/27 01:07:03;;;;;;;9.80;5.93;;;5.20;99.90;;;;;;5137325;27;20127;-70
2023/01/27 01:09:29;;;;;;;10.55;6.00;;;5.40;99.90;;;;;;5137349;27;20125;-70
2023/01/27 01:11:55;;;;;;;9.95;6.50;;;5.10;99.90;;;;;;5156626;27;20046;-70
2023/01/27 01:14:20;;;;;;;12.07;6.90;;;5.10;99.90;;;;;;5155888;27;20038;-70
2023/01/27 01:16:46;;;;;;;10.73;6.15;;;5.20;99.90;;;;;;5156623;27;20116;-70
2023/01/27 01:19:11;;;;;;;11.25;6.30;;;5.20;99.90;;;;;;5119835;27;20092;-70
2023/01/27 01:21:37;;;;;;;9.43;5.72;;;5.80;99.90;;;;;;5154696;27;20054;-70
2023/01/27 01:24:03;;;;;;;9.57;6.38;;;5.60;99.90;;;;;;5124078;27;20490;-70
2023/01/27 01:26:28;;;;;;;12.20;6.10;;;5.20;99.90;;;;;;5137165;27;20039;-70
2023/01/27 01:28:54;;;;;;;9.20;5.95;;;5.20;99.90;;;;;;5155533;27;20535;-70
2023/01/27 01:31:20;;;;;;;10.95;5.70;;;5.20;99.90;;;;;;5135589;27;20042;-70
2023/01/27 01:33:47;;;;;;;9.80;5.47;;;5.20;99.90;;;;;;5132459;27;20039;-70
2023/01/27 01:36:17;;;;;;;9.25;5.05;;;5.20;99.90;;;;;;5133927;27;20039;-70
2023/01/27 01:38:43;;;;;;;8.68;5.00;;;5.80;99.90;;;;;;5135129;27;20079;-70
2023/01/27 01:41:12;;;;;;;6.93;4.25;;;5.20;99.90;;;;;;5135240;27;20497;-70
2023/01/27 01:43:38;;;;;;;9.25;3.75;;;5.30;99.90;;;;;;5133499;27;20229;-71
2023/01/27 01:46:05;;;;;;;7.47;4.00;;;5.30;99.90;;;;;;5133892;27;20129;-71
2023/01/27 01:48:33;;;;;;;7.72;3.83;;;5.30;99.90;;;;;;5126045;27;20445;-70
2023/01/27 01:51:20;;;;;;;7.13;3.33;;;5.30;99.90;;;;;;5079158;28;20049;-70
2023/01/27 01:54:01;;;;;;;5.65;3.70;;;5.30;99.90;;;;;;5114419;28;20057;-70
2023/01/27 01:56:30;;;;;;;7.38;3.53;;;5.30;99.90;;;;;;5114418;28;20141;-70
2023/01/27 01:59:02;;;;;;;7.05;4.40;;;5.30;99.90;;;;;;5114014;28;20054;-70
2023/01/27 02:01:27;;;;;;;7.70;4.38;;;5.20;99.90;;;;;;5095856;28;20035;-70
2023/01/27 02:03:58;;;;;;;10.85;4.40;;;5.20;99.90;;;;;;5153440;27;20118;-70
2023/01/27 02:06:24;;;;;;;10.32;4.70;;;5.30;99.90;;;;;;5133324;27;20080;-70
2023/01/27 02:08:51;;;;;;;9.85;4.28;;;5.20;99.90;;;;;;5133932;27;20047;-70
2023/01/27 02:11:17;;;;;;;8.32;4.10;;;5.30;99.90;;;;;;5134299;27;20058;-70
2023/01/27 02:13:43;;;;;;;10.98;4.00;;;5.30;99.90;;;;;;5133901;27;20035;-70
2023/01/27 02:16:10;;;;;;;8.55;3.85;;;5.70;99.90;;;;;;5132570;27;20050;-71
2023/01/27 02:18:39;;;;;;;7.43;3.53;;;5.30;99.90;;;;;;5133281;27;20376;-70
2023/01/27 02:21:05;;;;;;;9.95;3.58;;;4.80;99.90;;;;;;5132776;27;20175;-70
2023/01/27 02:23:47;;;;;;;7.18;3.50;;;5.30;99.90;;;;;;5133364;27;20040;-70
2023/01/27 02:26:19;;;;;;;7.15;2.53;;;6.90;99.90;;;;;;5102383;28;20070;-70
2023/01/27 02:28:45;;;;;;;5.50;2.70;;;5.30;99.90;;;;;;5112413;28;20046;-70
2023/01/27 02:31:11;;;;;;;5.88;2.33;;;5.30;99.90;;;;;;5123398;27;20102;-70
2023/01/27 02:33:36;;;;;;;6.30;2.70;;;5.30;99.90;;;;;;5132587;27;20088;-70
2023/01/27 02:36:12;;;;;;;6.35;2.53;;;5.60;99.90;;;;;;5131903;27;20522;-70
2023/01/27 02:38:44;;;;;;;6.13;2.47;;;5.30;99.90;;;;;;5133635;27;20513;-69
2023/01/27 02:41:19;;;;;;;8.43;3.03;;;5.20;99.90;;;;;;5133962;27;20035;-70
2023/01/27 02:43:44;;;;;;;7.25;2.40;;;5.30;99.90;;;;;;5132120;27;20097;-70
2023/01/27 02:46:10;;;;;;;7.03;2.88;;;5.30;99.90;;;;;;5115378;27;20039;-70
2023/01/27 02:48:35;;;;;;;5.63;2.47;;;5.50;99.90;;;;;;5107077;28;20040;-70
2023/01/27 02:51:01;;;;;;;4.90;2.20;;;5.30;99.90;;;;;;5113368;28;20056;-70
2023/01/27 02:53:27;;;;;;;4.35;2.20;;;5.30;99.90;;;;;;5112937;28;20075;-70
2023/01/27 02:55:52;;;;;;;4.15;1.95;;;5.30;99.90;;;;;;5092592;28;20040;-70
2023/01/27 02:58:18;;;;;;;5.82;1.90;;;5.80;99.90;;;;;;5091164;28;20040;-70
2023/01/27 03:00:44;;;;;;;4.13;2.08;;;5.20;99.90;;;;;;5097089;28;20123;-70
2023/01/27 03:03:09;;;;;;;5.95;2.00;;;6.00;99.90;;;;;;5113262;28;20040;-70
2023/01/27 03:05:35;;;;;;;3.22;1.90;;;6.20;99.90;;;;;;5111672;28;20051;-70
2023/01/27 03:08:01;;;;;;;5.05;1.90;;;5.80;99.90;;;;;;5133169;27;20058;-70
2023/01/27 03:10:27;;;;;;;7.35;1.92;;;5.30;99.90;;;;;;5133549;27;20549;-70
2023/01/27 03:12:53;;;;;;;7.00;2.35;;;5.20;99.90;;;;;;5133601;28;20064;-70
2023/01/27 03:18:11;;;;;;;5.60;2.10;;;5.20;99.90;;;;;;5133678;28;20039;-70
2023/01/27 03:20:37;;;;;;;4.85;2.03;;;5.30;99.90;;;;;;5152917;27;20475;-69
2023/01/27 03:23:03;;;;;;;4.82;2.10;;;5.80;99.90;;;;;;5135731;27;20366;-70
2023/01/27 03:25:29;;;;;;;7.13;2.30;;;5.10;99.90;;;;;;5135637;27;20125;-70
2023/01/27 03:27:55;;;;;;;7.25;2.20;;;5.50;99.90;;;;;;5154586;27;20050;-70
2023/01/27 03:30:21;;;;;;;6.18;2.45;;;5.20;99.90;;;;;;5153639;27;20050;-70
2023/01/27 03:32:46;;;;;;;5.15;1.85;;;5.20;99.90;;;;;;5153733;27;20046;-70
2023/01/27 03:35:14;;;;;;;5.68;2.13;;;5.20;99.90;;;;;;5153523;27;20046;-70
2023/01/27 03:48:38;;;;;;;7.55;2.08;;;5.20;99.90;;;;;;5117258;27;20047;-70
2023/01/27 03:51:06;;;;;;;7.18;2.17;;;5.20;99.90;;;;;;5153781;27;20455;-70
2023/01/27 03:53:32;;;;;;;5.55;2.10;;;5.20;99.90;;;;;;5135355;27;20443;-70
2023/01/27 03:55:58;;;;;;;8.00;1.98;;;5.20;99.90;;;;;;5153582;27;20387;-70
2023/01/27 03:58:27;;;;;;;4.47;2.30;;;6.60;99.90;;;;;;5153517;27;20042;-70
2023/01/27 04:01:00;;;;;;;5.60;1.98;;;6.20;99.90;;;;;;5153260;27;20498;-70
2023/01/27 04:09:00;;;;;;;4.40;2.00;;;6.00;99.90;;;;;;5107310;27;20050;-70
2023/01/27 04:14:11;;;;;;;7.28;2.53;;;5.00;99.90;;;;;;5157185;27;20401;-70
2023/01/27 04:16:37;;;;;;;4.45;1.70;;;5.00;99.90;;;;;;5138502;27;20388;-70
2023/01/27 04:19:05;;;;;;;4.78;1.67;;;5.00;99.90;;;;;;5157020;27;20035;-70
2023/01/27 04:21:31;;;;;;;6.93;2.05;;;5.40;99.90;;;;;;5116088;28;20100;-70
2023/01/27 04:24:00;;;;;;;4.22;2.00;;;5.00;99.90;;;;;;5127269;27;20039;-70
2023/01/27 04:26:34;;;;;;;4.07;1.83;;;5.00;99.90;;;;;;5137008;27;20043;-70
2023/01/27 04:29:03;;;;;;;3.75;1.90;;;6.10;99.90;;;;;;5138222;27;20149;-70
2023/01/27 04:31:35;;;;;;;5.18;2.25;;;5.00;99.90;;;;;;5141053;27;20467;-70
2023/01/27 04:34:00;;;;;;;4.85;1.95;;;5.00;99.90;;;;;;5120210;27;20130;-70
2023/01/27 04:36:26;;;;;;;6.40;2.13;;;5.00;99.90;;;;;;5137958;27;20501;-70
2023/01/27 04:38:52;;;;;;;6.05;2.10;;;6.20;99.90;;;;;;5156602;27;20511;-70
2023/01/27 04:41:18;;;;;;;5.50;2.10;;;4.90;99.90;;;;;;5138085;27;20046;-70
2023/01/27 04:43:43;;;;;;;4.75;2.00;;;5.60;99.90;;;;;;5152398;27;20034;-70
2023/01/27 04:46:09;;;;;;;7.63;2.20;;;5.70;99.90;;;;;;5136215;27;20522;-70
2023/01/27 04:48:35;;;;;;;4.70;2.30;;;6.20;99.90;;;;;;5126522;27;20095;-70
2023/01/27 04:51:00;;;;;;;3.05;2.10;;;5.30;99.90;;;;;;5097600;28;20051;-70
2023/01/27 04:53:26;;;;;;;5.53;2.30;;;4.90;99.90;;;;;;5097410;28;20039;-70
2023/01/27 04:55:51;;;;;;;4.72;2.30;;;5.00;99.90;;;;;;5115657;28;20036;-70
2023/01/27 04:58:17;;;;;;;5.63;2.30;;;6.10;99.90;;;;;;5127330;27;20047;-70
2023/01/27 05:00:44;;;;;;;6.65;2.40;;;4.90;99.90;;;;;;5125962;27;20043;-70
2023/01/27 05:03:11;;;;;;;4.68;2.53;;;4.90;99.90;;;;;;5138334;27;20039;-70
2023/01/27 05:05:37;;;;;;;5.43;2.53;;;4.90;99.90;;;;;;5134295;27;20059;-70
2023/01/27 05:08:08;;;;;;;4.88;2.10;;;5.00;99.90;;;;;;5135144;27;20043;-71
2023/01/27 05:10:34;;;;;;;5.72;2.30;;;5.00;99.90;;;;;;5135887;27;20074;-70
2023/01/27 05:13:00;;;;;;;4.15;2.50;;;5.50;99.90;;;;;;5135719;27;20039;-70
2023/01/27 05:15:26;;;;;;;8.68;2.80;;;4.90;99.90;;;;;;5155806;27;20034;-70
2023/01/27 05:17:52;;;;;;;5.15;2.60;;;5.40;99.90;;;;;;5156053;27;20065;-70
2023/01/27 05:20:18;;;;;;;7.43;3.05;;;5.60;99.90;;;;;;5155852;27;20522;-70
2023/01/27 05:22:43;;;;;;;5.45;2.30;;;4.90;99.90;;;;;;5155804;27;20103;-70
2023/01/27 05:25:09;;;;;;;5.82;2.80;;;4.90;99.90;;;;;;5154520;27;20082;-70
2023/01/27 05:27:35;;;;;;;6.28;2.47;;;4.80;99.90;;;;;;5137040;27;20054;-70
2023/01/27 05:30:00;;;;;;;5.00;2.42;;;4.90;99.90;;;;;;5155881;27;20031;-70
2023/01/27 05:32:26;;;;;;;5.30;2.30;;;4.80;99.90;;;;;;5120052;27;20061;-70
2023/01/27 05:34:53;;;;;;;5.35;2.33;;;4.80;99.90;;;;;;5136516;27;20490;-70
2023/01/27 05:37:18;;;;;;;8.63;2.35;;;5.50;99.90;;;;;;5155338;27;20092;-71
2023/01/27 05:39:44;;;;;;;4.07;2.20;;;5.70;99.90;;;;;;5154006;27;20070;-71
2023/01/27 05:42:09;;;;;;;6.13;2.28;;;4.80;99.90;;;;;;5155688;27;20035;-70
2023/01/27 05:44:35;;;;;;;3.78;2.13;;;4.90;99.90;;;;;;5136663;27;20045;-71
2023/01/27 05:47:01;;;;;;;5.05;2.08;;;4.90;99.90;;;;;;5136036;27;20049;-70
2023/01/27 05:49:26;;;;;;;7.60;2.10;;;4.90;99.90;;;;;;5138963;27;20433;-71
2023/01/27 05:51:52;;;;;;;3.67;1.90;;;4.90;99.90;;;;;;5155188;27;20034;-71
2023/01/27 05:54:18;;;;;;;4.47;2.47;;;4.80;99.90;;;;;;5155052;27;20114;-70
2023/01/27 05:56:43;;;;;;;6.22;2.15;;;5.20;99.90;;;;;;5136873;27;20461;-71
2023/01/27 05:59:09;;;;;;;6.10;2.08;;;4.80;99.90;;;;;;5115796;27;20042;-70
2023/01/27 06:01:38;;;;;;;4.05;2.15;;;5.00;99.90;;;;;;5136186;27;20054;-71
2023/01/27 06:04:04;;;;;;;4.35;1.88;;;5.20;99.90;;;;;;5154934;27;20037;-70
2023/01/27 06:06:32;;;;;;;3.92;1.95;;;4.80;99.90;;;;;;5136268;27;20054;-71
2023/01/27 06:08:58;;;;;;;4.78;1.95;;;4.80;99.90;;;;;;5154813;27;20047;-71
2023/01/27 06:11:24;;;;;;;4.95;1.85;;;4.80;99.90;;;;;;5155076;27;20129;-71
2023/01/27 06:13:52;;;;;;;4.13;1.88;;;6.00;99.90;;;;;;5154467;27;20362;-70
2023/01/27 06:16:19;;;;;;;4.80;2.10;;;4.70;99.90;;;;;;5155100;27;20030;-71
2023/01/27 06:18:46;;;;;;;6.50;2.10;;;5.00;99.90;;;;;;5154572;27;20045;-71
2023/01/27 06:21:13;;;;;;;5.57;1.90;;;5.50;99.90;;;;;;5155191;27;20049;-71
2023/01/27 06:23:39;;;;;;;3.55;2.00;;;4.60;99.90;;;;;;5154460;27;20439;-71
2023/01/27 06:26:10;;;;;;;4.10;1.83;;;4.60;99.90;;;;;;5139321;27;20055;-71
2023/01/27 06:28:37;;;;;;;4.18;1.95;;;4.90;99.90;;;;;;5146090;27;20042;-71
2023/01/27 06:31:07;;;;;;;2.88;1.80;;;4.50;99.90;;;;;;5153929;27;20027;-75
2023/01/27 06:33:33;;;;;;;3.22;1.80;;;4.50;99.90;;;;;;5154204;27;20094;-75
2023/01/27 06:36:05;;;;;;;3.30;1.95;;;4.60;99.90;;;;;;5136156;27;20126;-74
2023/01/27 06:38:30;;;;;;;5.82;1.70;;;4.50;99.90;;;;;;5154674;27;20137;-75
2023/01/27 06:40:56;;;;;;;6.68;2.40;;;4.60;99.90;;;;;;5135984;27;20182;-75
2023/01/27 06:43:22;;;;;;;3.88;1.65;;;4.60;99.90;;;;;;5136064;27;20035;-74
2023/01/27 06:45:51;;;;;;;6.97;1.85;;;4.60;99.90;;;;;;5153936;27;20555;-74
2023/01/27 06:48:18;;;;;;;4.53;1.80;;;5.50;99.90;;;;;;5147394;27;20046;-75
2023/01/27 06:50:43;;;;;;;4.93;1.85;;;5.70;99.90;;;;;;5133578;27;20040;-74
2023/01/27 06:53:09;;;;;;;5.03;2.28;;;4.60;99.90;;;;;;5140336;27;20103;-75
2023/01/27 06:55:40;;;;;;;4.03;1.70;;;6.00;99.90;;;;;;5136038;27;20043;-75
2023/01/27 06:58:11;;;;;;;4.95;1.95;;;5.00;99.90;;;;;;5135885;27;20047;-75
2023/01/27 07:00:38;;;;;;;3.70;1.73;;;4.70;99.90;;;;;;5154001;27;20081;-74
2023/01/27 07:03:04;;;;;;;3.63;1.90;;;4.70;99.90;;;;;;5154389;27;20038;-75
2023/01/27 07:05:30;;;;;;;5.82;1.60;;;4.70;99.90;;;;;;5154238;27;20402;-75
2023/01/27 07:07:56;;;;;;;4.10;1.80;;;4.70;99.90;;;;;;5153913;27;20069;-75
2023/01/27 07:10:21;;;;;;;5.95;2.05;;;4.60;99.90;;;;;;5133808;27;20038;-75
2023/01/27 07:12:47;;;;;;;3.97;2.00;;;5.80;99.90;;;;;;5154218;27;20091;-75
2023/01/27 07:15:13;;;;;;;4.93;1.60;;;5.30;99.90;;;;;;5135111;27;20049;-75
2023/01/27 07:17:39;;;;;;;5.03;1.90;;;4.70;99.90;;;;;;5135021;27;20190;-75
2023/01/27 07:20:06;;;;;;;4.20;1.80;;;4.70;99.90;;;;;;5146126;27;20528;-76
2023/01/27 07:22:33;;;;;;;6.15;1.90;;;4.70;99.90;;;;;;5132793;28;20043;-74
2023/01/27 07:24:58;;;;;;;3.97;1.80;;;4.70;99.90;;;;;;5133374;28;20431;-75
2023/01/27 07:27:24;;;;;;;6.60;2.00;;;4.70;99.90;;;;;;5131906;28;20127;-75
2023/01/27 07:29:50;;;;;;;5.10;1.90;;;5.30;99.90;;;;;;5132832;28;20065;-75
2023/01/27 07:32:16;;;;;;;5.70;2.00;;;4.70;99.90;;;;;;5133167;28;20039;-74
2023/01/27 07:34:42;;;;;;;4.20;2.30;;;5.20;99.90;;;;;;5133087;28;20050;-74
2023/01/27 07:37:08;;;;;;;5.72;2.10;;;4.70;99.90;;;;;;5133243;28;20070;-74
2023/01/27 07:39:35;;;;;;;9.23;2.25;;;6.00;99.90;;;;;;5132985;28;20444;-74
2023/01/27 07:42:01;;;;;;;4.97;2.13;;;5.80;99.90;;;;;;5133504;28;20043;-74
2023/01/27 07:44:27;;;;;;;5.97;2.00;;;4.70;99.90;;;;;;5134735;27;20092;-74
2023/01/27 07:46:53;;;;;;;6.57;2.13;;;6.00;99.90;;;;;;5137339;27;20047;-74
2023/01/27 07:49:19;;;;;;;5.63;2.10;;;4.80;99.90;;;;;;5119952;27;20115;-74
2023/01/27 07:51:46;;;;;;;8.73;2.03;;;5.80;99.90;;;;;;5134132;27;20081;-74
2023/01/27 07:54:12;;;;;;;5.70;2.15;;;4.70;99.90;;;;;;5124354;27;20139;-74
2023/01/27 07:56:38;;;;;;;3.85;2.05;;;4.70;99.90;;;;;;5113146;27;20078;-74
2023/01/27 07:59:04;;;;;;;9.68;2.20;;;4.80;99.90;;;;;;5137001;27;20043;-74
2023/01/27 08:01:30;;;;;;;4.35;2.08;;;4.80;99.90;;;;;;5135554;27;20086;-74
2023/01/27 08:03:55;;;;;;;7.60;2.38;;;4.70;99.90;;;;;;5123374;27;20031;-74
2023/01/27 08:06:21;;;;;;;5.78;2.10;;;5.40;99.90;;;;;;5136601;27;20487;-74
2023/01/27 08:08:47;;;;;;;5.72;2.10;;;4.80;99.90;;;;;;5136773;27;20395;-74
2023/01/27 08:11:14;;;;;;;8.38;2.60;;;4.80;99.90;;;;;;5157104;27;20039;-74
2023/01/27 08:13:40;;;;;;;7.63;2.65;;;5.00;99.90;;;;;;5138685;27;20035;-75
2023/01/27 08:16:09;;;;;;;9.73;2.90;;;5.80;99.90;;;;;;5157201;27;20042;-74
2023/01/27 08:18:35;;;;;;;7.18;2.40;;;4.70;99.90;;;;;;5138255;27;20406;-74
2023/01/27 08:21:03;;;;;;;9.00;2.50;;;4.90;99.90;;;;;;5138778;27;20342;-74
2023/01/27 08:23:29;;;;;;;5.93;2.15;;;4.90;99.90;;;;;;5156910;27;20410;-74
2023/01/27 08:26:01;;;;;;;7.45;2.38;;;4.90;99.90;;;;;;5156803;27;20043;-75
2023/01/27 08:28:29;;;;;;;7.10;2.67;;;5.00;99.90;;;;;;5138380;27;20482;-74
2023/01/27 08:31:06;;;;;;;6.93;2.75;;;5.00;99.90;;;;;;5156734;27;20058;-74
2023/01/27 08:33:32;;;;;;;6.95;2.38;;;5.00;99.90;;;;;;5138179;27;20080;-75
2023/01/27 08:36:03;;;;;;;7.75;2.33;;;5.90;99.90;;;;;;5156524;27;20042;-74
2023/01/27 08:38:28;;;;;;;10.63;2.50;;;5.10;99.90;;;;;;5157023;27;20422;-74
2023/01/27 08:40:54;;;;;;;8.23;2.65;;;6.10;99.90;;;;;;5137874;27;20046;-74
2023/01/27 08:43:20;;;;;;;5.78;2.35;;;5.20;99.90;;;;;;5156834;27;20070;-74
2023/01/27 08:45:46;;;;;;;5.88;2.45;;;5.30;99.90;;;;;;5156585;27;20042;-74
2023/01/27 08:48:11;;;;;;;7.88;2.90;;;5.30;99.90;;;;;;5149709;27;20031;-75
2023/01/27 08:50:37;;;;;;;6.90;2.70;;;5.30;99.90;;;;;;5123321;27;20042;-74
2023/01/27 08:53:03;;;;;;;8.13;2.78;;;5.30;99.90;;;;;;5138032;27;20057;-75
2023/01/27 08:55:31;;;;;;;5.88;2.47;;;5.30;99.90;;;;;;5153657;27;20134;-74
2023/01/27 08:57:57;;;;;;;5.90;2.50;;;5.30;99.90;;;;;;5156455;27;20050;-74
2023/01/27 09:00:23;;;;;;;5.80;2.47;;;5.30;99.90;;;;;;5137588;27;20035;-75
2023/01/27 09:02:52;;;;;;;7.43;2.55;;;5.30;99.90;;;;;;5135943;27;20042;-74
2023/01/27 09:05:18;;;;;;;6.25;2.35;;;5.30;99.90;;;;;;5137152;27;20462;-75
2023/01/27 09:07:47;;;;;;;4.35;2.20;;;5.30;99.90;;;;;;5155937;27;20050;-74
2023/01/27 09:10:15;;;;;;;9.85;2.90;;;5.50;99.90;;;;;;5137446;27;20047;-74
2023/01/27 09:12:41;;;;;;;8.02;2.40;;;5.40;99.90;;;;;;5155706;27;20062;-75
2023/01/27 09:15:08;;;;;;;5.38;2.80;;;5.50;99.90;;;;;;5137484;27;20039;-75
2023/01/27 09:17:33;;;;;;;7.00;3.25;;;5.60;99.90;;;;;;5155857;27;20034;-75
2023/01/27 09:19:59;;;;;;;8.70;2.97;;;5.70;99.90;;;;;;5137284;27;20087;-75
2023/01/27 09:22:25;;;;;;;6.25;2.58;;;6.40;99.90;;;;;;5156226;27;20117;-74
2023/01/27 09:24:50;;;;;;;7.25;2.72;;;5.80;99.90;;;;;;5155686;27;20096;-75
2023/01/27 09:27:16;;;;;;;8.13;2.88;;;6.10;99.90;;;;;;5136469;27;20066;-75
2023/01/27 09:29:42;;;;;;;8.27;3.50;;;7.20;99.90;;;;;;5134996;27;20042;-74
2023/01/27 09:32:11;;;;;;;4.15;2.40;;;6.50;99.90;;;;;;5134447;27;20533;-75
2023/01/27 09:34:37;;;;;;;6.60;2.70;;;6.50;99.90;;;;;;5140243;27;20348;-72
2023/01/27 09:37:08;;;;;;;3.75;2.45;;;6.50;99.90;;;;;;5134193;27;20073;-71
2023/01/27 09:39:39;;;;;;;5.72;3.28;;;7.60;99.90;;;;;;5134727;27;20050;-72
2023/01/27 09:42:31;;;;;;;7.05;2.78;;;7.30;99.90;;;;;;5133925;27;20133;-72
2023/01/27 09:45:21;;;;;;;4.70;2.55;;;7.30;99.90;;;;;;5136495;27;20179;-72
2023/01/27 09:47:52;;;;;;;6.47;2.53;;;7.20;99.90;;;;;;5132690;27;20129;-73
2023/01/27 09:50:37;;;;;;;11.10;2.83;;;7.20;99.90;;;;;;5134397;27;20081;-74
2023/01/27 09:53:33;;;;;;;4.20;2.03;;;7.20;99.90;;;;;;5132595;27;20039;-73
2023/01/27 09:56:30;;;;;;;5.35;2.30;;;7.20;99.90;;;;;;5136511;27;20057;-73
2023/01/27 09:59:16;;;;;;;5.18;2.58;;;7.10;99.90;;;;;;5135949;27;20099;-73
2023/01/27 10:02:00;;;;;;;5.90;1.98;;;7.00;99.90;;;;;;5142449;27;20035;-74
2023/01/27 10:04:32;;;;;;;3.25;1.95;;;6.90;99.90;;;;;;5115105;27;20089;-74
2023/01/27 10:07:16;;;;;;;4.35;2.00;;;7.40;99.90;;;;;;5102865;27;20062;-73
2023/01/27 10:10:03;;;;;;;5.55;1.90;;;6.70;99.90;;;;;;5116057;27;20407;-73
2023/01/27 10:12:42;;;;;;;5.85;2.42;;;6.50;99.90;;;;;;5098804;27;20054;-73
2023/01/27 10:15:51;;;;;;;5.43;2.25;;;6.30;99.90;;;;;;5134243;27;20047;-74
2023/01/27 10:18:59;;;;;;;8.85;2.40;;;6.20;99.90;;;;;;5148918;27;20042;-73
2023/01/27 10:21:58;;;;;;;4.30;2.10;;;6.10;99.90;;;;;;5118939;27;20042;-73
2023/01/27 10:24:59;;;;;;;4.78;2.15;;;6.00;99.90;;;;;;5134967;27;20057;-74
2023/01/27 10:27:28;;;;;;;3.80;2.00;;;6.00;99.90;;;;;;5133365;27;20043;-73
2023/01/27 10:30:09;;;;;;;3.75;1.90;;;6.00;99.90;;;;;;5115220;27;20047;-74
2023/01/27 10:32:48;;;;;;;4.53;1.83;;;5.90;99.90;;;;;;5133760;27;20051;-73
2023/01/27 10:35:41;;;;;;;3.95;1.98;;;5.90;99.90;;;;;;5132042;27;20061;-73
2023/01/27 10:38:26;;;;;;;2.72;1.60;;;5.90;99.90;;;;;;5081780;27;20054;-73
2023/01/27 10:40:54;;;;;;;2.47;1.60;;;7.20;99.90;;;;;;5135703;27;20078;-73
2023/01/27 10:43:29;;;;;;;3.13;1.80;;;5.90;99.90;;;;;;5135568;27;20042;-73
2023/01/27 10:46:21;;;;;;;4.30;2.50;;;5.90;99.90;;;;;;5135379;27;20042;-74
2023/01/27 10:49:00;;;;;;;4.00;2.22;;;6.00;99.90;;;;;;5143616;27;20351;-73
2023/01/27 10:51:41;;;;;;;5.32;2.67;;;5.90;99.90;;;;;;5135861;27;20381;-74
2023/01/27 10:54:12;;;;;;;3.60;2.45;;;5.90;99.90;;;;;;5131205;27;20475;-74
2023/01/27 10:57:06;;;;;;;4.43;2.40;;;5.80;99.90;;;;;;5115077;27;20039;-73
2023/01/27 10:59:46;;;;;;;4.25;2.33;;;5.80;99.90;;;;;;5133574;27;20046;-73
2023/01/27 11:02:16;;;;;;;3.40;2.20;;;5.80;99.90;;;;;;5132873;27;20059;-73
2023/01/27 11:04:50;;;;;;;3.97;2.42;;;5.80;99.90;;;;;;5114783;27;20089;-73
2023/01/27 11:07:19;;;;;;;3.50;2.55;;;5.70;99.90;;;;;;5147674;27;20054;-73
2023/01/27 11:09:54;;;;;;;3.58;2.45;;;5.70;99.90;;;;;;5101677;27;20050;-72
2023/01/27 11:12:33;;;;;;;4.90;2.92;;;5.60;99.90;;;;;;5132602;27;20050;-73
2023/01/27 11:15:01;;;;;;;5.18;2.88;;;5.60;99.90;;;;;;5130402;27;20096;-80
2023/01/27 11:17:37;;;;;;;6.50;3.58;;;5.50;99.90;;;;;;5111151;27;20111;-80
2023/01/27 11:20:11;;;;;;;;;;;5.60;99.90;;;;;;5112208;28;20082;-79
2023/01/27 11:22:55;;;;;;;5.30;3.20;;;5.50;99.90;;;;;;5146967;27;19923;-80
2023/01/27 11:25:31;;;;;;;4.72;3.15;;;5.50;99.90;;;;;;5150410;27;20595;-80
2023/01/27 11:28:05;;;;;;;5.15;3.67;;;5.50;99.90;;;;;;5132048;27;20131;-80
2023/01/27 11:30:41;;;;;;;6.53;3.70;;;5.50;99.90;;;;;;5131878;27;20078;-80
2023/01/27 11:33:09;;;;;;;;;;;5.50;99.90;;;;;;5150473;27;20444;-81
2023/01/27 11:35:35;;;;;;;5.25;3.50;;;5.50;99.90;;;;;;5150708;27;19923;-81
2023/01/27 11:38:01;;;;;;;6.18;4.00;;;5.50;99.90;;;;;;5132363;27;20065;-79
2023/01/27 11:40:37;;;;;;;4.97;3.60;;;6.30;99.90;;;;;;5131856;27;20054;-80
2023/01/27 11:43:03;;;;;;;6.78;3.78;;;5.50;99.90;;;;;;5131918;27;20065;-80
2023/01/27 11:45:34;;;;;;;6.13;3.85;;;5.60;99.90;;;;;;5132024;27;20522;-81
2023/01/27 11:48:04;;;;;;;6.15;4.07;;;5.60;99.90;;;;;;5126087;28;20787;-80
2023/01/27 11:50:33;;;;;;;5.22;3.72;;;5.30;99.90;;;;;;5110177;28;20051;-79
2023/01/27 11:53:27;;;;;;;5.80;4.25;;;6.20;99.90;;;;;;5096097;27;20062;-79
2023/01/27 11:56:01;;;;;;;6.65;3.78;;;5.30;99.90;;;;;;5090960;28;20065;-81
2023/01/27 11:58:35;;;;;;;5.93;3.67;;;5.60;99.90;;;;;;5109350;28;20040;-81
2023/01/27 12:01:16;;;;;;;5.22;3.38;;;6.60;99.90;;;;;;5093162;27;20181;-80
2023/01/27 12:04:01;;;;;;;4.28;3.47;;;5.20;99.90;;;;;;5130336;27;20047;-76
2023/01/27 12:06:40;;;;;;;6.63;3.78;;;5.70;99.90;;;;;;5111468;28;20047;-77
2023/01/27 12:09:05;;;;;;;5.40;3.80;;;5.20;99.90;;;;;;5129110;28;20459;-77
2023/01/27 12:11:31;;;;;;;4.70;3.53;;;5.30;99.90;;;;;;5110584;28;20078;-77
2023/01/27 12:14:02;;;;;;;6.28;4.13;;;5.40;99.90;;;;;;5129299;28;20131;-76
2023/01/27 12:16:41;;;;;;;5.85;4.20;;;5.40;99.90;;;;;;5097020;27;20042;-77
2023/01/27 12:19:23;;;;;;;5.32;4.05;;;4.00;99.90;;;;;;5128911;28;20043;-78
2023/01/27 12:21:52;;;;;;;5.93;4.05;;;5.30;99.90;;;;;;5129679;28;20084;-79
2023/01/27 12:24:44;;;;;;;5.00;3.83;;;5.30;99.90;;;;;;5110842;28;20091;-79
2023/01/27 12:27:21;;;;;;;6.35;3.90;;;5.20;99.90;;;;;;5110604;28;20051;-79
2023/01/27 12:30:01;;;;;;;5.10;3.92;;;6.00;99.90;;;;;;5130154;27;20044;-79
2023/01/27 12:32:40;;;;;;;4.90;3.90;;;5.20;99.90;;;;;;5116975;27;20056;-77
2023/01/27 12:35:21;;;;;;;6.88;4.50;;;5.20;99.90;;;;;;5123715;27;20363;-77
2023/01/27 12:37:48;;;;;;;5.40;3.92;;;5.30;99.90;;;;;;5114508;27;20387;-77
2023/01/27 12:40:24;;;;;;;6.85;4.38;;;5.30;99.90;;;;;;5119791;27;20127;-75
2023/01/27 12:43:09;;;;;;;5.07;3.85;;;5.20;99.90;;;;;;5131906;27;20046;-76
2023/01/27 12:45:38;;;;;;;5.63;3.90;;;5.70;99.90;;;;;;5137850;27;20394;-77
2023/01/27 12:48:06;;;;;;;4.60;3.67;;;5.30;99.90;;;;;;5151455;27;20039;-77
2023/01/27 12:50:37;;;;;;;4.85;3.60;;;5.90;99.90;;;;;;5115904;27;20180;-77
2023/01/27 12:53:16;;;;;;;6.50;3.55;;;5.20;99.90;;;;;;5115778;27;20035;-77
2023/01/27 12:55:49;;;;;;;6.03;3.78;;;5.20;99.90;;;;;;5135959;27;20120;-77
2023/01/27 12:58:29;;;;;;;5.88;3.72;;;5.20;99.90;;;;;;5135716;27;20522;-77
2023/01/27 13:00:56;;;;;;;5.25;3.38;;;5.20;99.90;;;;;;5117134;27;20078;-77
2023/01/27 13:03:23;;;;;;;3.67;2.70;;;5.20;99.90;;;;;;5117190;27;20104;-77
2023/01/27 13:05:52;;;;;;;5.22;3.13;;;6.10;99.90;;;;;;5134700;27;20395;-77
2023/01/27 13:08:19;;;;;;;4.30;3.55;;;5.20;99.90;;;;;;5135861;27;20372;-76
2023/01/27 13:10:54;;;;;;;5.32;3.45;;;5.20;99.90;;;;;;5117174;27;20130;-77
2023/01/27 13:13:24;;;;;;;7.78;3.88;;;5.20;99.90;;;;;;5117100;27;20521;-77
2023/01/27 13:16:15;;;;;;;7.32;4.63;;;5.20;99.90;;;;;;5148212;27;20087;-77
2023/01/27 13:18:41;;;;;;;4.85;3.50;;;5.70;99.90;;;;;;5119181;27;20193;-77
2023/01/27 13:21:15;;;;;;;5.10;3.65;;;5.20;99.90;;;;;;5155881;27;20066;-77
2023/01/27 13:23:41;;;;;;;4.50;3.42;;;5.80;99.90;;;;;;5136988;27;20050;-77
2023/01/27 13:26:14;;;;;;;5.13;3.03;;;5.20;99.90;;;;;;5155171;27;20485;-77
2023/01/27 13:28:55;;;;;;;4.43;3.05;;;5.20;99.90;;;;;;5137341;27;20042;-77
2023/01/27 13:31:43;;;;;;;4.78;3.47;;;5.20;99.90;;;;;;5137116;27;20057;-77
2023/01/27 13:34:08;;;;;;;5.82;4.18;;;5.20;99.90;;;;;;5119643;27;20051;-77
2023/01/27 13:36:42;;;;;;;5.10;3.50;;;5.30;99.90;;;;;;5155546;27;20083;-76
2023/01/27 13:39:27;;;;;;;4.43;3.58;;;5.50;99.90;;;;;;5155184;27;20055;-78
2023/01/27 13:42:17;;;;;;;4.40;3.30;;;5.20;99.90;;;;;;5155146;27;20045;-77